Time;durP1;ratioP1;P1;durP2;ratioP2;P2;SDS_P1;SDS_P2;PMS_P1;PMS_P2;Temp;Humidity;BMP_temperature;BMP_pressure;BME280_temperature;BME280_humidity;BME280_pressure;Samples;Min_cycle;Max_cycle;Signal;HPM_P1;HPM_P2
2022/09/17 00:01:51;;;;;;;21.37;4.90;;;13.00;87.50;;;;;;5058965;28;20349;-89
2022/09/17 00:04:17;;;;;;;28.40;4.97;;;12.90;87.60;;;;;;5058973;28;20194;-89
2022/09/17 00:06:42;;;;;;;28.97;5.30;;;12.90;88.00;;;;;;5058698;28;20203;-89
2022/09/17 00:09:08;;;;;;;30.70;6.60;;;12.90;88.10;;;;;;5059642;28;20570;-88
2022/09/17 00:11:37;;;;;;;25.07;4.50;;;12.80;88.20;;;;;;5058963;28;20175;-89
2022/09/17 00:14:08;;;;;;;20.07;4.33;;;12.80;88.20;;;;;;5076597;28;20171;-88
2022/09/17 00:16:43;;;;;;;30.33;4.57;;;12.70;88.20;;;;;;5058903;28;20195;-88
2022/09/17 00:19:18;;;;;;;17.10;3.97;;;12.70;88.30;;;;;;5077031;28;20163;-88
2022/09/17 00:21:48;;;;;;;16.80;4.13;;;12.60;88.20;;;;;;5059013;28;20186;-88
2022/09/17 00:24:15;;;;;;;22.97;4.33;;;12.70;88.20;;;;;;5058865;28;20176;-88
2022/09/17 00:26:41;;;;;;;33.47;5.27;;;12.70;88.30;;;;;;5058836;28;20225;-87
2022/09/17 00:29:07;;;;;;;24.83;5.13;;;12.60;88.60;;;;;;5076457;28;20195;-88
2022/09/17 00:31:34;;;;;;;26.23;4.40;;;12.60;88.80;;;;;;5058592;28;20274;-88
2022/09/17 00:34:01;;;;;;;26.37;5.73;;;12.50;88.90;;;;;;5058617;28;20171;-88
2022/09/17 00:36:26;;;;;;;19.53;3.77;;;12.40;89.00;;;;;;5058556;28;20202;-88
2022/09/17 00:38:54;;;;;;;25.30;4.37;;;12.30;89.10;;;;;;5076649;28;20172;-87
2022/09/17 00:41:20;;;;;;;19.17;3.73;;;12.30;89.10;;;;;;5058316;28;20665;-89
2022/09/17 00:43:48;;;;;;;19.17;3.80;;;12.30;89.00;;;;;;5058277;28;20178;-88
2022/09/17 00:46:34;;;;;;;23.90;3.90;;;12.30;88.90;;;;;;5078278;28;20202;-89
2022/09/17 00:49:09;;;;;;;24.77;4.43;;;12.30;88.60;;;;;;5058281;28;20249;-90
2022/09/17 00:51:48;;;;;;;21.20;3.83;;;12.40;88.50;;;;;;5058373;28;20217;-89
2022/09/17 00:54:14;;;;;;;20.40;4.10;;;12.40;88.40;;;;;;5076189;28;20155;-88
2022/09/17 00:56:42;;;;;;;21.77;4.10;;;12.40;88.50;;;;;;5057829;28;20187;-90
2022/09/17 00:59:09;;;;;;;25.57;4.40;;;12.40;88.50;;;;;;5057098;28;20172;-88
2022/09/17 01:01:35;;;;;;;28.67;4.10;;;12.50;88.20;;;;;;5058112;28;20553;-88
2022/09/17 01:04:01;;;;;;;24.37;4.27;;;12.50;88.20;;;;;;5075958;28;20541;-89
2022/09/17 01:07:11;;;;;;;15.00;3.93;;;12.40;88.10;;;;;;5058276;28;20249;-89
2022/09/17 01:09:37;;;;;;;24.03;4.30;;;12.40;87.90;;;;;;5057746;28;20235;-88
2022/09/17 01:12:15;;;;;;;23.33;4.57;;;12.30;87.90;;;;;;5057916;28;20210;-89
2022/09/17 01:15:03;;;;;;;20.27;4.20;;;12.30;87.80;;;;;;5075776;28;20159;-88
2022/09/17 01:17:52;;;;;;;18.73;3.80;;;12.30;87.80;;;;;;5075191;28;20290;-88
2022/09/17 01:20:37;;;;;;;23.30;4.80;;;12.30;87.80;;;;;;5058918;28;20237;-88
2022/09/17 01:23:24;;;;;;;25.27;4.30;;;12.30;88.10;;;;;;5057353;28;20206;-89
2022/09/17 01:26:05;;;;;;;20.67;3.77;;;12.30;88.40;;;;;;5057759;28;20175;-89
2022/09/17 01:28:46;;;;;;;28.33;5.10;;;12.30;88.60;;;;;;5057590;28;20586;-88
2022/09/17 01:31:34;;;;;;;24.23;4.40;;;12.20;88.90;;;;;;5057865;28;20613;-88
2022/09/17 01:34:15;;;;;;;22.73;4.70;;;12.20;89.10;;;;;;5057576;28;20217;-88
2022/09/17 01:36:57;;;;;;;26.57;4.23;;;12.10;89.40;;;;;;5075771;28;20195;-88
2022/09/17 01:39:48;;;;;;;24.67;4.83;;;12.00;89.70;;;;;;5075353;28;20171;-88
2022/09/17 01:42:32;;;;;;;20.13;4.43;;;11.90;89.90;;;;;;5057274;28;20183;-88
2022/09/17 01:45:10;;;;;;;30.83;6.03;;;11.90;90.10;;;;;;5057622;28;20175;-89
2022/09/17 01:47:44;;;;;;;23.03;4.57;;;11.90;90.20;;;;;;5074983;28;20745;-88
2022/09/17 01:50:16;;;;;;;26.93;4.60;;;12.00;90.50;;;;;;5057227;28;20702;-89
2022/09/17 01:52:44;;;;;;;24.83;4.50;;;12.00;90.50;;;;;;5056928;28;20172;-89
2022/09/17 01:55:14;;;;;;;23.67;4.27;;;12.00;90.70;;;;;;5056924;28;20203;-89
2022/09/17 01:57:42;;;;;;;20.37;4.40;;;12.00;90.80;;;;;;5056782;28;20677;-89
2022/09/17 02:00:12;;;;;;;33.20;6.07;;;12.00;91.00;;;;;;5057047;28;20188;-89
2022/09/17 02:03:00;;;;;;;26.50;4.40;;;12.00;91.00;;;;;;5056714;28;20167;-88
2022/09/17 02:05:40;;;;;;;25.67;4.50;;;12.00;91.00;;;;;;5074781;28;20171;-88
2022/09/17 02:08:20;;;;;;;24.10;4.43;;;12.00;91.00;;;;;;5056749;28;20234;-89
2022/09/17 02:10:52;;;;;;;26.40;4.33;;;12.00;91.00;;;;;;5055558;28;20164;-89
2022/09/17 02:13:27;;;;;;;29.73;6.07;;;11.90;91.10;;;;;;5056736;28;20217;-89
2022/09/17 02:16:09;;;;;;;32.00;5.47;;;11.90;91.10;;;;;;5074548;28;20217;-88
2022/09/17 02:18:57;;;;;;;23.87;3.90;;;12.00;91.10;;;;;;5056458;28;20178;-89
2022/09/17 02:21:45;;;;;;;30.87;4.87;;;12.00;91.10;;;;;;5056519;28;20199;-89
2022/09/17 02:24:40;;;;;;;27.23;5.53;;;11.90;91.10;;;;;;5056278;28;20168;-89
2022/09/17 02:27:27;;;;;;;19.07;4.37;;;11.90;91.10;;;;;;5064781;28;20242;-89
2022/09/17 02:29:52;;;;;;;22.10;4.13;;;11.90;91.10;;;;;;5056208;28;20291;-88
2022/09/17 02:32:18;;;;;;;18.80;4.30;;;12.00;91.10;;;;;;5056187;28;20176;-89
2022/09/17 02:34:44;;;;;;;26.93;4.93;;;11.90;91.00;;;;;;5056208;28;20181;-88
2022/09/17 02:37:10;;;;;;;20.60;5.57;;;11.90;91.20;;;;;;5074018;28;20187;-89
2022/09/17 02:39:36;;;;;;;26.20;5.67;;;11.90;91.30;;;;;;5073847;28;20258;-89
2022/09/17 02:42:32;;;;;;;17.27;3.67;;;11.90;91.40;;;;;;5073978;28;20167;-89
2022/09/17 02:45:15;;;;;;;20.73;3.80;;;11.90;91.50;;;;;;5073804;28;20163;-89
2022/09/17 02:48:03;;;;;;;23.20;4.63;;;11.90;91.50;;;;;;5055935;28;20196;-88
2022/09/17 02:50:51;;;;;;;23.10;4.73;;;11.90;91.60;;;;;;5055925;28;20159;-89
2022/09/17 02:53:33;;;;;;;29.13;4.40;;;11.90;91.70;;;;;;5055743;28;20171;-88
2022/09/17 02:56:19;;;;;;;22.50;4.50;;;11.90;91.80;;;;;;5074106;28;20657;-89
2022/09/17 02:59:19;;;;;;;31.50;4.50;;;11.90;91.90;;;;;;5055825;28;20187;-89
2022/09/17 03:01:57;;;;;;;27.90;5.13;;;11.90;92.00;;;;;;5055818;28;20174;-89
2022/09/17 03:04:26;;;;;;;25.50;4.40;;;11.90;92.00;;;;;;5055689;28;20622;-89
2022/09/17 03:06:52;;;;;;;33.83;4.60;;;11.90;92.10;;;;;;5073286;28;20192;-89
2022/09/17 03:09:18;;;;;;;18.13;4.10;;;11.90;92.10;;;;;;5055468;28;20629;-88
2022/09/17 03:11:43;;;;;;;16.03;3.43;;;11.80;92.30;;;;;;5055641;28;20262;-89
2022/09/17 03:14:09;;;;;;;22.33;4.87;;;11.70;92.40;;;;;;5055332;28;20171;-88
2022/09/17 03:16:34;;;;;;;23.00;4.43;;;11.60;92.70;;;;;;5073522;28;20191;-90
2022/09/17 03:19:00;;;;;;;23.33;4.43;;;11.60;92.80;;;;;;5055299;28;20221;-89
2022/09/17 03:21:25;;;;;;;24.63;4.80;;;11.50;92.80;;;;;;5072911;28;20190;-89
2022/09/17 03:23:51;;;;;;;23.90;4.77;;;11.60;92.90;;;;;;5055298;28;20530;-89
2022/09/17 03:26:17;;;;;;;26.77;4.50;;;11.50;92.90;;;;;;5055283;28;20613;-88
2022/09/17 03:28:42;;;;;;;18.40;4.00;;;11.50;93.00;;;;;;5055323;28;20237;-89
2022/09/17 03:31:08;;;;;;;17.00;3.63;;;11.40;92.90;;;;;;5055345;28;20642;-89
2022/09/17 03:33:33;;;;;;;18.67;3.90;;;11.30;92.70;;;;;;5055482;28;20182;-88
2022/09/17 03:35:59;;;;;;;12.23;3.33;;;11.30;92.70;;;;;;5055263;28;20183;-89
2022/09/17 03:38:25;;;;;;;20.33;3.33;;;11.20;92.80;;;;;;5055294;28;20175;-89
2022/09/17 03:41:01;;;;;;;20.33;4.03;;;11.20;92.90;;;;;;5055477;28;20182;-90
2022/09/17 03:43:27;;;;;;;25.87;5.03;;;11.30;93.00;;;;;;5055893;28;20178;-89
2022/09/17 03:45:53;;;;;;;20.20;3.90;;;11.20;93.20;;;;;;5055840;28;20183;-92
2022/09/17 03:48:19;;;;;;;15.30;3.80;;;11.30;93.30;;;;;;5055512;28;20203;-90
2022/09/17 03:50:44;;;;;;;15.97;3.37;;;11.20;93.50;;;;;;5073158;28;20666;-88
2022/09/17 03:53:10;;;;;;;28.83;5.13;;;11.30;93.50;;;;;;5055022;28;20707;-89
2022/09/17 03:55:37;;;;;;;20.83;3.50;;;11.30;93.50;;;;;;5054982;28;20236;-89
2022/09/17 03:58:03;;;;;;;23.77;4.57;;;11.20;93.50;;;;;;5072844;28;20533;-90
2022/09/17 04:00:29;;;;;;;20.70;4.60;;;11.20;93.50;;;;;;5054850;28;20270;-89
2022/09/17 04:02:54;;;;;;;20.97;3.93;;;11.20;93.50;;;;;;5073008;28;20637;-90
2022/09/17 04:05:20;;;;;;;25.47;4.47;;;11.20;93.40;;;;;;5072869;28;20180;-89
2022/09/17 04:07:45;;;;;;;22.83;4.03;;;11.20;93.30;;;;;;5072746;28;20203;-89
2022/09/17 04:10:11;;;;;;;13.20;3.30;;;11.20;93.30;;;;;;5054872;28;20215;-90
2022/09/17 04:12:38;;;;;;;20.63;4.23;;;11.30;93.30;;;;;;5055126;28;20612;-88
2022/09/17 04:15:03;;;;;;;26.97;4.97;;;11.20;93.10;;;;;;5054976;28;20178;-89
2022/09/17 04:17:29;;;;;;;25.70;4.90;;;11.10;92.90;;;;;;5054764;28;20187;-89
2022/09/17 04:19:54;;;;;;;24.63;4.23;;;11.10;92.70;;;;;;5054952;28;20179;-90
2022/09/17 04:22:20;;;;;;;21.37;3.70;;;11.00;92.20;;;;;;5055116;28;20187;-90
2022/09/17 04:24:45;;;;;;;24.03;5.40;;;11.00;92.00;;;;;;5072848;28;20175;-89
2022/09/17 04:27:11;;;;;;;25.27;4.43;;;11.00;92.00;;;;;;5054676;28;20290;-90
2022/09/17 04:29:37;;;;;;;33.10;4.70;;;11.10;92.00;;;;;;5054527;28;20298;-89
2022/09/17 04:32:02;;;;;;;29.40;5.17;;;11.20;92.10;;;;;;5072602;28;20232;-89
2022/09/17 04:34:28;;;;;;;22.17;4.43;;;11.20;92.10;;;;;;5073869;28;20167;-89
2022/09/17 04:36:53;;;;;;;22.27;5.40;;;11.30;92.30;;;;;;5058179;28;20225;-89
2022/09/17 04:39:19;;;;;;;22.93;4.03;;;11.30;92.30;;;;;;5058105;28;20633;-89
2022/09/17 04:41:45;;;;;;;21.23;4.07;;;11.20;92.40;;;;;;5058180;28;20183;-88
2022/09/17 04:44:10;;;;;;;19.17;3.83;;;11.30;92.50;;;;;;5058299;28;20262;-89
2022/09/17 04:46:36;;;;;;;20.53;4.57;;;11.30;92.60;;;;;;5075995;28;20642;-89
2022/09/17 04:49:01;;;;;;;26.87;3.80;;;11.20;92.70;;;;;;5057906;28;20217;-88
2022/09/17 04:51:27;;;;;;;19.43;4.10;;;11.20;92.80;;;;;;5058022;28;20179;-88
2022/09/17 04:53:52;;;;;;;21.53;3.90;;;11.20;92.80;;;;;;5075782;28;20172;-89
2022/09/17 04:56:18;;;;;;;22.23;4.07;;;11.30;93.00;;;;;;5057750;28;20217;-89
2022/09/17 04:58:43;;;;;;;17.47;3.53;;;11.30;93.00;;;;;;5057616;28;20179;-91
2022/09/17 05:01:09;;;;;;;17.23;4.73;;;11.20;93.00;;;;;;5057927;28;20241;-90
2022/09/17 05:03:34;;;;;;;17.73;4.13;;;11.10;93.00;;;;;;5057837;28;20183;-89
2022/09/17 05:06:00;;;;;;;22.83;3.83;;;11.10;93.00;;;;;;5057626;28;20199;-89
2022/09/17 05:08:26;;;;;;;24.17;4.23;;;11.10;93.10;;;;;;5057543;28;20206;-90
2022/09/17 05:10:51;;;;;;;20.40;4.23;;;11.10;93.10;;;;;;5057658;28;20168;-89
2022/09/17 05:13:17;;;;;;;26.90;4.43;;;11.20;93.10;;;;;;5075399;28;20163;-89
2022/09/17 05:15:43;;;;;;;22.63;3.57;;;11.20;93.10;;;;;;5057430;28;20234;-89
2022/09/17 05:18:09;;;;;;;23.17;3.87;;;11.20;93.10;;;;;;5057500;28;20672;-89
2022/09/17 05:20:35;;;;;;;21.93;4.07;;;11.20;93.10;;;;;;5057413;28;20176;-90
2022/09/17 05:23:00;;;;;;;26.97;3.63;;;11.20;93.10;;;;;;5075396;28;20194;-89
2022/09/17 05:25:26;;;;;;;23.87;3.50;;;11.20;93.00;;;;;;5075545;28;20229;-89
2022/09/17 05:27:52;;;;;;;24.23;4.67;;;11.20;92.90;;;;;;5057123;28;20202;-88
2022/09/17 05:30:18;;;;;;;25.07;4.87;;;11.20;92.70;;;;;;5057907;28;20361;-89
2022/09/17 05:32:44;;;;;;;16.73;3.77;;;11.20;92.60;;;;;;5057192;28;20266;-89
2022/09/17 05:35:10;;;;;;;16.77;3.37;;;11.20;92.60;;;;;;5074984;28;20182;-89
2022/09/17 05:37:36;;;;;;;20.93;4.47;;;11.10;92.40;;;;;;5057095;28;20195;-89
2022/09/17 05:40:04;;;;;;;24.90;4.00;;;11.10;92.30;;;;;;5057007;28;20695;-90
2022/09/17 05:42:29;;;;;;;24.87;4.13;;;11.10;92.20;;;;;;5075242;28;20251;-89
2022/09/17 05:44:55;;;;;;;20.00;3.63;;;11.10;91.70;;;;;;5056680;28;20571;-89
2022/09/17 05:47:20;;;;;;;22.33;4.30;;;11.10;91.50;;;;;;5056832;28;20203;-90
2022/09/17 05:49:46;;;;;;;23.57;3.97;;;11.00;91.30;;;;;;5056851;28;20242;-90
2022/09/17 05:52:11;;;;;;;17.43;3.80;;;11.10;91.30;;;;;;5074976;28;20630;-89
2022/09/17 05:54:37;;;;;;;17.50;3.50;;;11.00;90.40;;;;;;5057098;28;20246;-89
2022/09/17 05:57:03;;;;;;;14.07;3.63;;;11.10;89.80;;;;;;5057498;28;20344;-90
2022/09/17 05:59:28;;;;;;;8.90;2.33;;;11.20;89.50;;;;;;5056842;28;20179;-89
2022/09/17 06:01:54;;;;;;;11.03;3.20;;;11.20;89.10;;;;;;5056614;28;20637;-90
2022/09/17 06:04:19;;;;;;;15.17;2.30;;;11.10;88.80;;;;;;5074819;28;20183;-90
2022/09/17 06:06:45;;;;;;;12.27;3.07;;;11.20;88.60;;;;;;5056852;28;20195;-90
2022/09/17 06:09:10;;;;;;;6.83;2.27;;;11.20;88.80;;;;;;5074792;28;20221;-89
2022/09/17 06:11:37;;;;;;;11.80;2.80;;;11.30;88.60;;;;;;5057135;28;20633;-88
2022/09/17 06:14:03;;;;;;;9.43;2.30;;;11.40;88.40;;;;;;5056944;28;20186;-88
2022/09/17 06:16:28;;;;;;;8.97;2.33;;;11.30;88.20;;;;;;5056540;28;20191;-88
2022/09/17 06:18:54;;;;;;;9.13;2.20;;;11.20;87.40;;;;;;5056833;28;20661;-90
2022/09/17 06:21:22;;;;;;;12.50;2.27;;;11.20;87.80;;;;;;5074272;28;20548;-90
2022/09/17 06:23:49;;;;;;;12.83;2.17;;;11.30;88.30;;;;;;5056532;28;20194;-91
2022/09/17 06:26:15;;;;;;;14.77;2.60;;;11.40;88.60;;;;;;5057154;28;20198;-90
2022/09/17 06:28:40;;;;;;;14.53;2.13;;;11.50;88.70;;;;;;5056759;28;20199;-89
2022/09/17 06:31:08;;;;;;;8.13;2.77;;;11.50;88.50;;;;;;5056685;28;20262;-89
2022/09/17 06:33:35;;;;;;;7.27;1.87;;;11.40;87.40;;;;;;5059076;28;20262;-89
2022/09/17 06:36:03;;;;;;;3.80;1.97;;;11.20;86.80;;;;;;5061570;28;20328;-91
2022/09/17 06:38:31;;;;;;;6.63;1.70;;;11.10;87.40;;;;;;5060504;28;20175;-90
2022/09/17 06:40:57;;;;;;;9.97;1.90;;;11.10;87.90;;;;;;5058919;28;20175;-89
2022/09/17 06:43:23;;;;;;;5.10;1.53;;;11.10;88.10;;;;;;5056546;28;20171;-90
2022/09/17 06:45:53;;;;;;;9.63;1.90;;;11.00;88.30;;;;;;5056385;28;20176;-91
2022/09/17 06:48:19;;;;;;;4.30;1.40;;;11.10;88.30;;;;;;5056285;28;20249;-90
2022/09/17 06:50:45;;;;;;;6.60;2.10;;;11.10;88.30;;;;;;5056773;28;20176;-90
2022/09/17 06:53:10;;;;;;;6.93;2.00;;;11.10;88.40;;;;;;5057949;28;20178;-90
2022/09/17 06:55:36;;;;;;;6.87;2.00;;;11.20;88.50;;;;;;5056184;28;20262;-90
2022/09/17 06:58:02;;;;;;;8.03;1.60;;;11.20;88.40;;;;;;5073600;28;20655;-89
2022/09/17 07:00:27;;;;;;;10.40;2.20;;;11.20;88.40;;;;;;5074078;28;20183;-90
2022/09/17 07:02:57;;;;;;;12.23;2.20;;;11.30;87.90;;;;;;5056136;28;20649;-90
2022/09/17 07:05:23;;;;;;;9.50;2.00;;;11.40;88.20;;;;;;5056789;28;20202;-89
2022/09/17 07:07:49;;;;;;;9.57;2.07;;;11.50;88.20;;;;;;5056051;28;20270;-90
2022/09/17 07:10:15;;;;;;;11.70;2.53;;;11.60;88.10;;;;;;5056216;28;20682;-90
2022/09/17 07:12:40;;;;;;;9.63;2.30;;;11.60;88.40;;;;;;5057842;28;20211;-90
2022/09/17 07:15:06;;;;;;;14.53;2.60;;;11.60;88.50;;;;;;5057054;28;20211;-91
2022/09/17 07:17:32;;;;;;;12.20;2.40;;;11.70;88.60;;;;;;5056486;28;20706;-91
2022/09/17 07:19:57;;;;;;;19.10;2.60;;;11.70;88.90;;;;;;5058389;28;20175;-89
2022/09/17 07:22:24;;;;;;;11.07;2.90;;;11.60;88.60;;;;;;5056309;28;20209;-89
2022/09/17 07:24:49;;;;;;;15.13;3.37;;;11.60;88.60;;;;;;5074846;28;20190;-90
2022/09/17 07:27:15;;;;;;;12.87;2.27;;;11.70;88.70;;;;;;5057657;28;20225;-90
2022/09/17 07:29:41;;;;;;;11.47;2.73;;;11.70;88.60;;;;;;5075406;28;20209;-89
2022/09/17 07:32:06;;;;;;;8.93;2.27;;;11.80;88.40;;;;;;5058394;28;20262;-89
2022/09/17 07:34:32;;;;;;;9.03;2.27;;;11.80;88.00;;;;;;5058178;28;20167;-90
2022/09/17 07:36:58;;;;;;;10.37;2.20;;;11.70;87.50;;;;;;5057785;28;20191;-89
2022/09/17 07:39:23;;;;;;;10.50;2.33;;;11.60;87.90;;;;;;5063850;28;20179;-91
2022/09/17 07:41:49;;;;;;;8.97;2.33;;;11.50;88.10;;;;;;5082185;28;20179;-91
2022/09/17 07:44:14;;;;;;;16.00;3.03;;;11.50;88.30;;;;;;5059038;28;20183;-91
2022/09/17 07:46:40;;;;;;;10.20;2.57;;;11.50;88.60;;;;;;5056903;28;20252;-90
2022/09/17 07:49:05;;;;;;;13.70;2.90;;;11.40;88.90;;;;;;5056033;28;20297;-90
2022/09/17 07:51:31;;;;;;;18.47;3.03;;;11.40;89.10;;;;;;5074335;28;20676;-91
2022/09/17 07:53:58;;;;;;;15.20;2.70;;;11.50;89.20;;;;;;5058269;28;20271;-89
2022/09/17 07:56:25;;;;;;;18.97;3.50;;;11.50;88.60;;;;;;5057416;28;20298;-91
2022/09/17 07:58:51;;;;;;;11.83;2.50;;;11.70;88.70;;;;;;5076368;28;20172;-89
2022/09/17 08:01:17;;;;;;;8.20;1.93;;;11.90;88.80;;;;;;5058153;28;20206;-89
2022/09/17 08:03:50;;;;;;;9.43;2.30;;;12.10;85.90;;;;;;5058799;28;20185;-89
2022/09/17 08:06:18;;;;;;;10.07;2.30;;;12.30;86.50;;;;;;5058842;28;20207;-89
2022/09/17 08:08:44;;;;;;;12.67;2.00;;;12.50;86.00;;;;;;5060737;28;20203;-89
2022/09/17 08:11:16;;;;;;;9.20;2.17;;;12.60;84.90;;;;;;5060255;28;20248;-90
2022/09/17 08:13:43;;;;;;;9.90;1.97;;;12.70;84.10;;;;;;5059557;28;20183;-89
2022/09/17 08:16:12;;;;;;;4.10;1.50;;;12.80;83.70;;;;;;5077282;28;20206;-88
2022/09/17 08:18:38;;;;;;;7.83;1.80;;;12.60;80.50;;;;;;5060024;28;20180;-89
2022/09/17 08:21:05;;;;;;;5.33;1.80;;;12.60;79.40;;;;;;5060505;28;20223;-88
2022/09/17 08:23:32;;;;;;;5.90;1.27;;;12.70;80.50;;;;;;5059991;28;20183;-88
2022/09/17 08:25:59;;;;;;;3.77;1.50;;;12.80;78.40;;;;;;5059880;28;20199;-88
2022/09/17 08:28:26;;;;;;;7.47;1.77;;;12.80;78.90;;;;;;5059776;28;20203;-89
2022/09/17 08:30:52;;;;;;;9.57;1.93;;;12.90;79.30;;;;;;5078296;28;20172;-88
2022/09/17 08:33:18;;;;;;;10.70;1.60;;;12.90;80.00;;;;;;5059947;28;20182;-89
2022/09/17 08:35:54;;;;;;;8.77;1.40;;;12.80;80.90;;;;;;5059590;28;20183;-88
2022/09/17 08:38:20;;;;;;;7.23;1.37;;;12.80;81.60;;;;;;5059352;28;20179;-89
2022/09/17 08:41:17;;;;;;;3.97;1.10;;;12.80;80.00;;;;;;5060047;28;20175;-89
2022/09/17 08:44:01;;;;;;;5.90;1.23;;;12.80;79.80;;;;;;5023104;28;20195;-88
2022/09/17 08:46:31;;;;;;;3.07;0.90;;;12.40;81.00;;;;;;5059500;28;20199;-89
2022/09/17 08:49:24;;;;;;;6.80;1.27;;;12.20;80.90;;;;;;5059674;28;20203;-89
2022/09/17 08:51:55;;;;;;;2.57;1.07;;;12.20;81.20;;;;;;5059096;28;20629;-89
2022/09/17 08:54:24;;;;;;;2.53;1.20;;;12.20;80.90;;;;;;5060028;28;20178;-89
2022/09/17 08:57:04;;;;;;;5.67;1.43;;;12.30;82.20;;;;;;5059020;28;20204;-88
2022/09/17 08:59:43;;;;;;;4.33;1.13;;;12.30;81.30;;;;;;5058858;28;20198;-89
2022/09/17 09:02:24;;;;;;;3.33;1.10;;;12.10;81.20;;;;;;5059314;28;20174;-89
2022/09/17 09:05:01;;;;;;;3.93;0.97;;;12.20;82.00;;;;;;5059010;28;20175;-88
2022/09/17 09:07:33;;;;;;;1.57;1.00;;;12.20;82.30;;;;;;5060332;28;20285;-90
2022/09/17 09:10:22;;;;;;;6.70;1.30;;;12.40;83.10;;;;;;5058924;28;20206;-88
2022/09/17 09:12:50;;;;;;;2.67;1.13;;;12.70;83.90;;;;;;5077520;28;20191;-88
2022/09/17 09:15:41;;;;;;;3.43;1.00;;;12.80;84.30;;;;;;5059157;28;20206;-89
2022/09/17 09:18:19;;;;;;;4.17;1.20;;;12.50;85.00;;;;;;5058824;28;20163;-89
2022/09/17 09:20:52;;;;;;;2.93;1.20;;;12.40;85.40;;;;;;5058027;28;20213;-90
2022/09/17 09:23:23;;;;;;;4.50;1.20;;;12.10;85.40;;;;;;5058605;28;20174;-89
2022/09/17 09:25:56;;;;;;;3.47;1.43;;;12.10;85.50;;;;;;5058311;28;20171;-88
2022/09/17 09:28:41;;;;;;;4.43;1.30;;;12.00;86.10;;;;;;5058109;28;20191;-89
2022/09/17 09:31:25;;;;;;;5.10;1.33;;;12.10;86.40;;;;;;5076345;28;20160;-90
2022/09/17 09:33:51;;;;;;;4.70;1.10;;;12.20;85.80;;;;;;5060418;28;20160;-88
2022/09/17 09:36:20;;;;;;;8.23;1.47;;;11.90;86.10;;;;;;5060173;28;20260;-90
2022/09/17 09:39:01;;;;;;;5.03;1.30;;;12.00;86.60;;;;;;5061267;28;20190;-87
2022/09/17 09:41:46;;;;;;;8.33;1.20;;;12.50;86.30;;;;;;5059531;28;20281;-89
2022/09/17 09:44:14;;;;;;;8.17;2.07;;;12.30;86.50;;;;;;5058234;28;20587;-87
2022/09/17 09:47:07;;;;;;;4.83;1.10;;;12.30;86.40;;;;;;5057638;28;20290;-88
2022/09/17 09:49:55;;;;;;;2.23;1.13;;;11.80;86.30;;;;;;5075581;28;20191;-90
2022/09/17 09:52:45;;;;;;;2.07;1.00;;;11.70;86.40;;;;;;5058518;28;20168;-87
2022/09/17 09:55:29;;;;;;;7.67;1.27;;;11.90;86.40;;;;;;5057908;28;20163;-88
2022/09/17 09:58:04;;;;;;;7.93;1.70;;;11.80;86.10;;;;;;5058146;28;20215;-88
2022/09/17 10:00:41;;;;;;;6.80;2.20;;;11.90;85.90;;;;;;5058197;28;20278;-87
2022/09/17 10:03:22;;;;;;;6.87;2.73;;;12.30;85.00;;;;;;5076189;28;20156;-87
2022/09/17 10:06:03;;;;;;;9.47;2.70;;;12.80;85.10;;;;;;5059015;28;20167;-88
2022/09/17 10:08:35;;;;;;;12.10;2.50;;;12.80;85.60;;;;;;5075929;28;20557;-88
2022/09/17 10:11:22;;;;;;;7.67;1.73;;;12.80;84.90;;;;;;5058070;28;20171;-89
2022/09/17 10:13:47;;;;;;;6.33;1.77;;;12.80;85.80;;;;;;5057177;28;20176;-88
2022/09/17 10:16:19;;;;;;;5.70;1.77;;;12.40;86.10;;;;;;5057490;28;20199;-88
2022/09/17 10:18:46;;;;;;;6.17;1.80;;;11.90;87.20;;;;;;5058662;28;20206;-87
2022/09/17 10:21:18;;;;;;;11.37;2.30;;;11.80;88.00;;;;;;5058952;28;20240;-91
2022/09/17 10:23:45;;;;;;;3.77;1.97;;;11.70;88.50;;;;;;5066550;28;20187;-89
2022/09/17 10:26:35;;;;;;;6.80;1.50;;;11.80;89.30;;;;;;5068606;28;20204;-92
2022/09/17 10:29:16;;;;;;;5.13;1.60;;;12.00;89.20;;;;;;5080051;28;20253;-88
2022/09/17 10:31:53;;;;;;;7.47;1.60;;;12.10;88.90;;;;;;5055657;28;20225;-91
2022/09/17 10:34:29;;;;;;;6.57;1.90;;;12.40;89.50;;;;;;5057722;28;20171;-87
2022/09/17 10:36:56;;;;;;;5.83;1.50;;;12.40;87.80;;;;;;5056995;28;20229;-88
2022/09/17 10:39:43;;;;;;;5.37;1.77;;;12.30;88.30;;;;;;5058175;28;20562;-90
2022/09/17 10:42:18;;;;;;;6.10;1.83;;;12.20;88.70;;;;;;5058105;28;20209;-87
2022/09/17 10:44:51;;;;;;;6.67;1.70;;;12.10;89.00;;;;;;5057394;28;20206;-87
2022/09/17 10:47:23;;;;;;;6.57;1.73;;;12.00;89.70;;;;;;5058519;28;20581;-88
2022/09/17 10:49:56;;;;;;;4.93;1.57;;;12.30;90.70;;;;;;5075552;28;20187;-89
2022/09/17 10:52:31;;;;;;;10.10;2.03;;;12.20;89.20;;;;;;5076092;28;20170;-88
2022/09/17 10:55:29;;;;;;;7.60;1.70;;;12.30;90.50;;;;;;5076354;28;20194;-88
2022/09/17 10:58:06;;;;;;;11.30;2.27;;;12.00;89.60;;;;;;5059569;28;20191;-87
2022/09/17 11:00:56;;;;;;;9.40;1.83;;;12.20;89.90;;;;;;5059942;28;20163;-87
2022/09/17 11:03:43;;;;;;;13.10;2.20;;;12.50;90.20;;;;;;5077296;28;20163;-88
2022/09/17 11:06:20;;;;;;;13.43;2.70;;;12.50;89.10;;;;;;5058315;28;20295;-88
2022/09/17 11:09:19;;;;;;;14.43;2.67;;;12.80;88.20;;;;;;5058371;28;20241;-88
2022/09/17 11:12:07;;;;;;;10.77;2.20;;;12.90;88.40;;;;;;5058094;28;20170;-88
2022/09/17 11:15:17;;;;;;;7.63;2.60;;;12.80;87.40;;;;;;5076659;28;20163;-87
2022/09/17 11:17:49;;;;;;;12.10;2.13;;;13.10;87.70;;;;;;5076255;28;20195;-88
2022/09/17 11:20:39;;;;;;;7.37;1.80;;;13.20;86.80;;;;;;5059673;28;20189;-88
2022/09/17 11:23:32;;;;;;;6.43;1.87;;;13.10;86.30;;;;;;5078673;28;20175;-87
2022/09/17 11:26:04;;;;;;;8.07;2.27;;;13.20;87.40;;;;;;5063672;28;20573;-87
2022/09/17 11:28:38;;;;;;;6.43;2.10;;;13.00;88.40;;;;;;5062652;28;20697;-87
2022/09/17 11:31:04;;;;;;;10.60;2.67;;;13.20;88.10;;;;;;5060526;28;20257;-87
2022/09/17 11:33:38;;;;;;;11.00;2.70;;;13.70;87.40;;;;;;5078728;28;20228;-87
2022/09/17 11:36:15;;;;;;;9.00;2.17;;;13.50;86.70;;;;;;5059241;28;20194;-88
2022/09/17 11:38:47;;;;;;;14.50;2.77;;;13.60;86.40;;;;;;5060145;28;20185;-87
2022/09/17 11:41:22;;;;;;;11.53;2.40;;;13.30;87.40;;;;;;5063081;28;20171;-87
2022/09/17 11:44:09;;;;;;;12.17;2.50;;;13.70;87.90;;;;;;5063534;28;20190;-88
2022/09/17 11:46:41;;;;;;;12.40;2.83;;;13.40;86.80;;;;;;5083721;28;20247;-88
2022/09/17 11:49:20;;;;;;;12.10;2.67;;;13.80;87.20;;;;;;5064978;28;20191;-87
2022/09/17 11:51:51;;;;;;;11.33;3.30;;;13.90;87.20;;;;;;5066572;28;20551;-88
2022/09/17 11:54:31;;;;;;;14.77;2.90;;;13.80;86.40;;;;;;5066270;28;20160;-88
2022/09/17 11:57:31;;;;;;;13.33;3.00;;;13.80;87.10;;;;;;5065950;28;20692;-87
2022/09/17 12:00:14;;;;;;;13.20;2.90;;;14.00;86.80;;;;;;5061134;28;20187;-88
2022/09/17 12:03:00;;;;;;;16.23;3.40;;;14.10;85.00;;;;;;5065173;28;20167;-87
2022/09/17 12:05:38;;;;;;;13.60;2.93;;;14.50;85.90;;;;;;5082566;28;20166;-87
2022/09/17 12:08:18;;;;;;;14.00;2.77;;;14.40;84.20;;;;;;5065007;28;20225;-87
2022/09/17 12:11:25;;;;;;;15.97;3.33;;;14.70;83.40;;;;;;5065856;28;20174;-88
2022/09/17 12:13:59;;;;;;;12.03;3.00;;;14.90;82.70;;;;;;5064060;28;20679;-87
2022/09/17 12:16:41;;;;;;;14.55;2.88;;;15.20;81.20;;;;;;5065350;28;20225;-87
2022/09/17 12:19:20;;;;;;;9.23;2.92;;;15.60;80.60;;;;;;5083146;28;20565;-87
2022/09/17 12:21:55;;;;;;;11.75;2.28;;;15.90;78.90;;;;;;5065494;28;20254;-87
2022/09/17 12:24:22;;;;;;;10.38;2.80;;;15.80;79.70;;;;;;5066557;28;20258;-87
2022/09/17 12:27:25;;;;;;;12.90;2.85;;;15.00;81.40;;;;;;5066478;28;20253;-88
2022/09/17 12:30:20;;;;;;;15.48;3.65;;;15.10;83.10;;;;;;5062979;28;20668;-87
2022/09/17 12:32:51;;;;;;;9.45;3.17;;;14.60;83.90;;;;;;5054154;28;20194;-88
2022/09/17 12:35:40;;;;;;;21.33;4.10;;;14.50;84.70;;;;;;5060771;28;20163;-86
2022/09/17 12:38:17;;;;;;;17.27;3.17;;;14.50;85.30;;;;;;5078340;28;20183;-88
2022/09/17 12:41:13;;;;;;;6.87;2.00;;;14.60;84.80;;;;;;5080956;28;20166;-88
2022/09/17 12:44:03;;;;;;;7.80;1.60;;;14.80;82.40;;;;;;5044558;28;20210;-92
2022/09/17 12:46:56;;;;;;;4.72;1.10;;;15.40;81.40;;;;;;5059176;28;20214;-89
2022/09/17 12:49:40;;;;;;;11.98;1.85;;;15.00;77.90;;;;;;5058921;28;20681;-89
2022/09/17 12:52:12;;;;;;;6.10;1.58;;;15.10;77.40;;;;;;5078024;28;20163;-88
2022/09/17 12:54:47;;;;;;;4.05;1.77;;;15.20;76.60;;;;;;5060087;28;20172;-88
2022/09/17 12:57:49;;;;;;;2.80;0.90;;;15.30;76.90;;;;;;5059692;28;20198;-88
2022/09/17 13:00:15;;;;;;;9.52;1.17;;;15.80;74.70;;;;;;5058949;28;20169;-87
2022/09/17 13:03:03;;;;;;;4.18;0.98;;;16.00;72.80;;;;;;5076898;28;20229;-86
2022/09/17 13:05:47;;;;;;;5.15;1.63;;;16.00;70.70;;;;;;5077604;28;20213;-87
2022/09/17 13:08:36;;;;;;;1.88;1.00;;;16.10;70.50;;;;;;5059879;28;20568;-86
2022/09/17 13:11:20;;;;;;;2.78;0.90;;;15.80;70.60;;;;;;5077974;28;20167;-87